CYEK - Arviat Airport

Pirep is a free, collaborative database of all public and private airports located within the United States. All pilots are welcome to contribute, edit, and improve any airport they have local knowledge about, no registration required.
Are you familiar with this airport? Help out other pilots by adding your local knowledge.
Uploaded photos will be licensed under a CC BY-SA 4.0 license. Please only upload photos you have the rights to use.
Tags
Public
Undocu­mented
METAR / TAF
Webcam
Edit Tags
Food
Camping
Lodging
Car Rental
Bicycles
Swimming
Golfing
Fishing
Hot Springs
Museum
Flying Clubs
Airpark
Upcoming Events
No upcoming events. Is anything happening here soon?
*
*
*

Where exactly on/near the airport is this event taking place?

Is there a webpage with more information for this event?

Who should be contacted for more information?

What is this event all about?

Repeat every
Description
Transient Parking
Fuel Location
Landing & Tie-down Fees
Crew Car Availability
Flying Clubs
WiFi Access
Airport Statistics
Location: Arviat, Nunavut
Elevation: 32ft
Runway 15T/33T: 4,000ft
Warning: This airport was imported from a non-authoritative source. It's public/private status may not be accurate.
Access: Open to the public
Current Weather — VFR
  • Weather data is strictly informational and not for flight planning purposes.
  • METAR
    2024-05-24 20:00:00 CDT
    Ceiling Wind Temperature Dewpoint Weather Visbility
    Sky clear 170° @ 9kt 32°F 28°F N/A 9SM
    Raw: CYEK 250100Z AUTO 17009KT 9SM CLR 00/M02 A3008 RMK SLP188
  • TAF
    2024-05-24 19:00:00 CDT – 2024-05-24 22:00:00 CDT
    Ceiling Wind Weather Visbility
    Sky clear 170° @ 12kt N/A 6SM
    Clouds: Scattered @ 25,000ft
    Raw: TAF CYEK 242340Z 2500/2512 17012KT P6SM SCT250 FM250300 16009KT P6SM FEW005 TEMPO 2503/2509 1SM BR BKN005 PROB30 2503/2509 1/2SM FZFG OVC004 FM250900 15008KT 1SM BR BKN005 TEMPO 2509/2512 1/2SM FZFG OVC002 RMK FCST BASED ON AUTO OBS. NXT FCST BY 250600Z
  • TAF
    2024-05-24 22:00:00 CDT – 2024-05-25 04:00:00 CDT
    Ceiling Wind Weather Visbility
    Sky clear 160° @ 9kt N/A 6SM
    Clouds: Few @ 500ft
    Raw: TAF CYEK 242340Z 2500/2512 17012KT P6SM SCT250 FM250300 16009KT P6SM FEW005 TEMPO 2503/2509 1SM BR BKN005 PROB30 2503/2509 1/2SM FZFG OVC004 FM250900 15008KT 1SM BR BKN005 TEMPO 2509/2512 1/2SM FZFG OVC002 RMK FCST BASED ON AUTO OBS. NXT FCST BY 250600Z
  • TAF
    2024-05-24 22:00:00 CDT – 2024-05-25 04:00:00 CDT
    Ceiling Wind Weather Visbility
    500ft ° @ kt Mist 1SM
    Clouds: Broken @ 500ft
    Raw: TAF CYEK 242340Z 2500/2512 17012KT P6SM SCT250 FM250300 16009KT P6SM FEW005 TEMPO 2503/2509 1SM BR BKN005 PROB30 2503/2509 1/2SM FZFG OVC004 FM250900 15008KT 1SM BR BKN005 TEMPO 2509/2512 1/2SM FZFG OVC002 RMK FCST BASED ON AUTO OBS. NXT FCST BY 250600Z
  • TAF
    2024-05-24 22:00:00 CDT – 2024-05-25 04:00:00 CDT
    Ceiling Wind Weather Visbility
    400ft ° @ kt Freezing fog 0SM
    Clouds: Overcast @ 400ft
    Raw: TAF CYEK 242340Z 2500/2512 17012KT P6SM SCT250 FM250300 16009KT P6SM FEW005 TEMPO 2503/2509 1SM BR BKN005 PROB30 2503/2509 1/2SM FZFG OVC004 FM250900 15008KT 1SM BR BKN005 TEMPO 2509/2512 1/2SM FZFG OVC002 RMK FCST BASED ON AUTO OBS. NXT FCST BY 250600Z
  • TAF
    2024-05-25 04:00:00 CDT – 2024-05-25 07:00:00 CDT
    Ceiling Wind Weather Visbility
    500ft 150° @ 8kt Mist 1SM
    Clouds: Broken @ 500ft
    Raw: TAF CYEK 242340Z 2500/2512 17012KT P6SM SCT250 FM250300 16009KT P6SM FEW005 TEMPO 2503/2509 1SM BR BKN005 PROB30 2503/2509 1/2SM FZFG OVC004 FM250900 15008KT 1SM BR BKN005 TEMPO 2509/2512 1/2SM FZFG OVC002 RMK FCST BASED ON AUTO OBS. NXT FCST BY 250600Z
  • TAF
    2024-05-25 04:00:00 CDT – 2024-05-25 07:00:00 CDT
    Ceiling Wind Weather Visbility
    200ft ° @ kt Freezing fog 0SM
    Clouds: Overcast @ 200ft
    Raw: TAF CYEK 242340Z 2500/2512 17012KT P6SM SCT250 FM250300 16009KT P6SM FEW005 TEMPO 2503/2509 1SM BR BKN005 PROB30 2503/2509 1/2SM FZFG OVC004 FM250900 15008KT 1SM BR BKN005 TEMPO 2509/2512 1/2SM FZFG OVC002 RMK FCST BASED ON AUTO OBS. NXT FCST BY 250600Z
Click/tap to add an annotation marker to the map
Direct links to live image URLs will be displayed inline on this page. URLs to separate webpages will be linked to.
URL:
Direct links to live image URLs will be displayed inline on this page. URLs to separate webpages will be linked to.
URL:
Comments
Leave a comment What was your experience like at this airport?